createdAt,value
2019-04-16T00:01:48.772Z,11.75
2019-04-16T00:04:24.968Z,11.73
2019-04-16T00:07:07.347Z,11.70
2019-04-16T00:09:48.552Z,11.69
2019-04-16T00:12:35.575Z,11.64
2019-04-16T00:15:07.224Z,11.60
2019-04-16T00:17:36.727Z,11.58
2019-04-16T00:20:25.718Z,11.53
2019-04-16T00:22:57.798Z,11.49
2019-04-16T00:25:27.296Z,11.47
2019-04-16T00:27:59.564Z,11.44
2019-04-16T00:30:28.353Z,11.40
2019-04-16T00:32:57.843Z,11.38
2019-04-16T00:35:27.300Z,11.35
2019-04-16T00:37:56.789Z,11.33
2019-04-16T00:40:27.205Z,11.30
2019-04-16T00:42:56.799Z,11.27
2019-04-16T00:45:26.296Z,11.26
2019-04-16T00:47:55.764Z,11.23
2019-04-16T00:50:25.260Z,11.21
2019-04-16T00:52:54.762Z,11.19
2019-04-16T00:55:24.242Z,11.17
2019-04-16T00:57:53.783Z,11.15
2019-04-16T01:00:23.360Z,11.14
2019-04-16T01:02:52.831Z,11.12
2019-04-16T01:05:22.336Z,11.12
2019-04-16T01:07:52.181Z,11.10
2019-04-16T01:10:21.651Z,11.10
2019-04-16T01:12:51.128Z,11.10
2019-04-16T01:15:20.650Z,11.08
2019-04-16T01:17:50.131Z,11.07
2019-04-16T01:20:19.595Z,11.06
2019-04-16T01:22:49.077Z,11.06
2019-04-16T01:25:20.266Z,11.05
2019-04-16T01:27:51.398Z,11.04
2019-04-16T01:30:22.598Z,11.01
2019-04-16T01:33:02.227Z,11.01
2019-04-16T01:35:33.432Z,11.01
2019-04-16T01:38:14.338Z,10.99
2019-04-16T01:40:49.795Z,10.97
2019-04-16T01:43:16.675Z,10.96
2019-04-16T01:45:46.228Z,10.92
2019-04-16T01:48:15.712Z,10.90
2019-04-16T01:50:45.213Z,10.87
2019-04-16T01:53:14.703Z,10.84
2019-04-16T01:55:44.244Z,10.82
2019-04-16T01:58:13.739Z,10.80
2019-04-16T02:00:43.341Z,10.79
2019-04-16T02:03:17.525Z,10.77
2019-04-16T02:05:44.033Z,10.76
2019-04-16T02:08:13.518Z,10.75
2019-04-16T02:10:42.994Z,10.73
2019-04-16T02:13:14.979Z,10.72
2019-04-16T02:15:43.740Z,10.70
2019-04-16T02:18:13.379Z,10.68
2019-04-16T02:20:42.895Z,10.67
2019-04-16T02:23:31.791Z,10.65
2019-04-16T02:26:01.271Z,10.63
2019-04-16T02:28:30.766Z,10.59
2019-04-16T02:31:00.592Z,10.56
2019-04-16T02:33:30.231Z,10.54
2019-04-16T02:35:59.776Z,10.50
2019-04-16T02:38:29.267Z,10.46
2019-04-16T02:40:58.798Z,10.42
2019-04-16T02:43:28.425Z,10.41
2019-04-16T02:45:58.768Z,10.39
2019-04-16T02:48:28.514Z,10.36
2019-04-16T02:51:15.753Z,10.36
2019-04-16T02:53:54.393Z,10.32
2019-04-16T02:56:42.090Z,10.30
2019-04-16T02:59:13.737Z,10.28
2019-04-16T03:01:49.401Z,10.25
2019-04-16T03:04:21.047Z,10.22
2019-04-16T03:06:50.631Z,10.19
2019-04-16T03:09:20.157Z,10.17
2019-04-16T03:11:49.807Z,10.14
2019-04-16T03:14:19.266Z,10.13
2019-04-16T03:17:00.434Z,10.11
2019-04-16T03:19:31.606Z,10.10
2019-04-16T03:22:02.229Z,10.07
2019-04-16T03:24:32.444Z,10.07
2019-04-16T03:27:22.160Z,10.05
2019-04-16T03:29:52.515Z,10.04
2019-04-16T03:32:21.976Z,10.03
2019-04-16T03:35:10.902Z,10.01
2019-04-16T03:37:40.408Z,10.01
2019-04-16T03:40:17.026Z,10.01
2019-04-16T03:42:41.309Z,9.99
2019-04-16T03:45:10.910Z,9.98
2019-04-16T03:47:40.405Z,9.98
2019-04-16T03:50:10.717Z,9.95
2019-04-16T03:52:42.273Z,9.95
2019-04-16T03:55:11.512Z,9.92
2019-04-16T03:57:40.996Z,9.91
2019-04-16T04:00:12.759Z,9.88
2019-04-16T04:02:42.286Z,9.87
2019-04-16T04:05:11.826Z,9.84
2019-04-16T04:07:44.013Z,9.79
2019-04-16T04:10:13.338Z,9.75
2019-04-16T04:12:45.675Z,9.71
2019-04-16T04:15:14.178Z,9.67
2019-04-16T04:18:03.052Z,9.62
2019-04-16T04:20:32.740Z,9.59
2019-04-16T04:23:02.193Z,9.51
2019-04-16T04:25:36.001Z,9.47
2019-04-16T04:28:02.901Z,9.42
2019-04-16T04:30:32.451Z,9.36
2019-04-16T04:33:07.664Z,9.32
2019-04-16T04:35:33.132Z,9.25
2019-04-16T04:38:04.137Z,9.19
2019-04-16T04:40:44.386Z,9.15
2019-04-16T04:43:05.095Z,9.11
2019-04-16T04:45:34.632Z,9.08
2019-04-16T04:48:04.352Z,9.02
2019-04-16T04:50:35.428Z,8.96
2019-04-16T04:53:05.012Z,8.91
2019-04-16T04:55:34.508Z,8.86
2019-04-16T04:58:04.003Z,8.80
2019-04-16T05:00:33.454Z,8.75
2019-04-16T05:03:03.282Z,8.71
2019-04-16T05:05:34.402Z,8.65
2019-04-16T05:08:03.890Z,8.61
2019-04-16T05:10:36.622Z,8.55
2019-04-16T05:13:04.702Z,8.52
2019-04-16T05:15:34.426Z,8.50
2019-04-16T05:18:05.839Z,8.50
2019-04-16T05:20:35.095Z,8.52
2019-04-16T05:23:04.619Z,8.55
2019-04-16T05:25:34.474Z,8.58
2019-04-16T05:28:04.053Z,8.61
2019-04-16T05:30:33.701Z,8.65
2019-04-16T05:33:05.515Z,8.71
2019-04-16T05:35:34.543Z,8.75
2019-04-16T05:38:04.086Z,8.81
2019-04-16T05:40:35.183Z,8.86
2019-04-16T05:43:04.891Z,8.94
2019-04-16T05:45:37.042Z,9.03
2019-04-16T05:48:05.620Z,9.09
2019-04-16T05:50:54.466Z,9.18
2019-04-16T05:53:24.186Z,9.26
2019-04-16T05:56:00.864Z,9.37
2019-04-16T05:58:30.934Z,9.44
2019-04-16T06:01:14.807Z,9.53
2019-04-16T06:03:44.263Z,9.61
2019-04-16T06:06:13.739Z,9.70
2019-04-16T06:08:43.260Z,9.79
2019-04-16T06:11:26.558Z,9.88
2019-04-16T06:13:45.592Z,9.99
2019-04-16T06:16:16.703Z,10.10
2019-04-16T06:18:51.920Z,10.20
2019-04-16T06:21:22.605Z,10.32
2019-04-16T06:24:06.297Z,10.43
2019-04-16T06:26:49.116Z,10.54
2019-04-16T06:29:35.864Z,10.67
2019-04-16T06:32:11.926Z,10.78
2019-04-16T06:34:59.651Z,10.91
2019-04-16T06:40:32.560Z,11.16
2019-04-16T06:43:06.005Z,11.30
2019-04-16T06:45:37.891Z,11.41
2019-04-16T06:48:12.862Z,11.53
2019-04-16T06:50:44.719Z,11.64
2019-04-16T06:53:15.851Z,11.76
2019-04-16T06:55:46.968Z,11.89
2019-04-16T06:58:29.893Z,12.00
2019-04-16T07:01:16.931Z,12.12
2019-04-16T07:03:59.466Z,12.25
2019-04-16T07:06:44.227Z,12.40
2019-04-16T07:09:25.241Z,12.54
2019-04-16T07:11:54.888Z,12.68
2019-04-16T07:14:24.513Z,12.80
2019-04-16T07:16:54.006Z,12.92
2019-04-16T07:19:23.549Z,13.04
2019-04-16T07:21:53.077Z,13.16
2019-04-16T07:24:23.608Z,13.29
2019-04-16T07:26:56.340Z,13.41
2019-04-16T07:29:32.704Z,13.54
2019-04-16T07:32:16.918Z,13.67
2019-04-16T07:34:48.043Z,13.78
2019-04-16T07:37:33.082Z,13.92
2019-04-16T07:40:19.429Z,14.03
2019-04-16T07:43:02.522Z,14.16
2019-04-16T07:45:42.755Z,14.28
2019-04-16T07:48:22.665Z,14.40
2019-04-16T07:51:08.694Z,14.52
2019-04-16T07:53:39.782Z,14.63
2019-04-16T07:56:19.633Z,14.78
2019-04-16T07:58:49.197Z,14.89
2019-04-16T08:01:18.848Z,15.00
2019-04-16T08:03:48.299Z,15.11
2019-04-16T08:06:17.803Z,15.21
2019-04-16T08:08:47.664Z,15.33
2019-04-16T08:11:17.199Z,15.45
2019-04-16T08:13:46.769Z,15.54
2019-04-16T08:16:16.232Z,15.65
2019-04-16T08:18:49.933Z,15.75
2019-04-16T08:21:22.527Z,15.84
2019-04-16T08:23:53.108Z,15.96
2019-04-16T08:26:22.663Z,16.07
2019-04-16T08:28:52.162Z,16.19
2019-04-16T08:31:23.265Z,16.30
2019-04-16T08:33:52.758Z,16.40
2019-04-16T08:36:22.241Z,16.49
2019-04-16T08:38:51.721Z,16.58
2019-04-16T08:41:21.735Z,16.69
2019-04-16T08:43:51.337Z,16.79
2019-04-16T08:46:20.893Z,16.88
2019-04-16T08:48:53.983Z,16.98
2019-04-16T08:51:30.409Z,17.08
2019-04-16T08:53:52.871Z,17.18
2019-04-16T08:56:22.405Z,17.28
2019-04-16T08:58:51.881Z,17.37
2019-04-16T09:01:23.558Z,17.48
2019-04-16T09:03:53.140Z,17.57
2019-04-16T09:06:22.650Z,17.66
2019-04-16T09:09:11.589Z,17.76
2019-04-16T09:11:35.347Z,17.83
2019-04-16T09:14:05.598Z,17.93
2019-04-16T09:16:39.337Z,18.02
2019-04-16T09:19:10.553Z,18.10
2019-04-16T09:21:43.292Z,18.18
2019-04-16T09:24:28.462Z,18.25
2019-04-16T09:27:05.383Z,18.30
2019-04-16T09:29:40.407Z,18.37
2019-04-16T09:32:28.135Z,18.43
2019-04-16T09:35:09.191Z,18.48
2019-04-16T09:37:45.292Z,18.57
2019-04-16T09:40:32.461Z,18.64
2019-04-16T09:43:16.238Z,18.72
2019-04-16T09:45:37.177Z,18.81
2019-04-16T09:48:06.148Z,18.88
2019-04-16T09:50:35.634Z,18.94
2019-04-16T09:53:05.118Z,19.01
2019-04-16T09:55:34.599Z,19.06
2019-04-16T09:58:06.903Z,19.12
2019-04-16T10:00:38.128Z,19.17
2019-04-16T10:03:28.159Z,19.23
2019-04-16T10:05:56.462Z,19.30
2019-04-16T10:08:29.035Z,19.34
2019-04-16T10:10:58.157Z,19.36
2019-04-16T10:13:32.867Z,19.41
2019-04-16T10:16:00.506Z,19.45
2019-04-16T10:18:34.407Z,19.49
2019-04-16T10:21:01.214Z,19.57
2019-04-16T10:23:39.670Z,19.63
2019-04-16T10:26:09.319Z,19.69
2019-04-16T10:28:40.468Z,19.76
2019-04-16T10:31:11.732Z,19.83
2019-04-16T10:33:41.267Z,19.92
2019-04-16T10:36:10.834Z,20.00
2019-04-16T10:38:41.972Z,20.09
2019-04-16T10:41:15.736Z,20.15
2019-04-16T10:43:58.741Z,20.20
2019-04-16T10:46:45.977Z,20.22
2019-04-16T10:49:17.163Z,20.28
2019-04-16T10:52:03.031Z,20.34
2019-04-16T10:54:38.331Z,20.38
2019-04-16T10:57:19.510Z,20.43
2019-04-16T11:00:08.569Z,20.46
2019-04-16T11:02:40.401Z,20.54
2019-04-16T11:05:24.019Z,20.59
2019-04-16T11:07:55.217Z,20.63
2019-04-16T11:10:24.788Z,20.69
2019-04-16T11:12:54.377Z,20.74
2019-04-16T11:15:25.510Z,20.78
2019-04-16T11:17:55.087Z,20.83
2019-04-16T11:20:25.013Z,20.87
2019-04-16T11:22:54.544Z,20.88
2019-04-16T11:25:23.971Z,20.91
2019-04-16T11:27:53.704Z,20.94
2019-04-16T11:30:31.282Z,20.99
2019-04-16T11:33:00.877Z,21.06
2019-04-16T11:35:30.366Z,21.14
2019-04-16T11:37:59.835Z,21.21
2019-04-16T11:40:29.478Z,21.24
2019-04-16T11:42:58.997Z,21.28
2019-04-16T11:45:28.652Z,21.31
2019-04-16T11:47:58.144Z,21.34
2019-04-16T11:50:27.626Z,21.41
2019-04-16T11:52:58.526Z,21.48
2019-04-16T11:55:28.268Z,21.54
2019-04-16T11:57:57.751Z,21.59
2019-04-16T12:00:40.900Z,21.64
2019-04-16T12:03:12.170Z,21.66
2019-04-16T12:05:52.336Z,21.69
2019-04-16T12:08:35.736Z,21.73
2019-04-16T12:11:17.008Z,21.76
2019-04-16T12:13:50.582Z,21.84
2019-04-16T12:16:24.376Z,21.89
2019-04-16T12:19:00.755Z,21.93
2019-04-16T12:21:31.946Z,21.94
2019-04-16T12:24:18.678Z,21.94
2019-04-16T12:26:49.938Z,21.94
2019-04-16T12:29:23.149Z,21.99
2019-04-16T12:32:04.308Z,22.02
2019-04-16T12:34:36.022Z,22.10
2019-04-16T12:37:25.464Z,22.17
2019-04-16T12:39:54.848Z,22.23
2019-04-16T12:42:28.462Z,22.31
2019-04-16T12:45:14.681Z,22.40
2019-04-16T12:47:46.043Z,22.49
2019-04-16T12:50:17.510Z,22.58
2019-04-16T12:52:55.527Z,22.67
2019-04-16T12:55:38.500Z,22.74
2019-04-16T12:58:19.149Z,22.80
2019-04-16T13:00:51.289Z,22.86
2019-04-16T13:03:34.211Z,22.91
2019-04-16T13:06:09.855Z,22.94
2019-04-16T13:08:47.112Z,22.94
2019-04-16T13:11:20.759Z,22.92
2019-04-16T13:13:59.170Z,22.94
2019-04-16T13:16:46.152Z,22.95
2019-04-16T13:19:35.335Z,22.98
2019-04-16T13:22:07.373Z,23.03
2019-04-16T13:24:38.716Z,23.08
2019-04-16T13:27:15.543Z,23.13
2019-04-16T13:29:45.226Z,23.15
2019-04-16T13:32:14.791Z,23.17
2019-04-16T13:34:44.326Z,23.20
2019-04-16T13:37:13.914Z,23.25
2019-04-16T13:39:54.334Z,23.29
2019-04-16T13:42:23.836Z,23.33
2019-04-16T13:44:57.733Z,23.37
2019-04-16T13:47:27.234Z,23.38
2019-04-16T13:50:02.570Z,23.34
2019-04-16T13:52:29.632Z,23.32
2019-04-16T13:55:08.417Z,23.32
2019-04-16T13:57:37.912Z,23.32
2019-04-16T14:00:15.544Z,23.34
2019-04-16T14:02:52.883Z,23.37
2019-04-16T14:05:23.002Z,23.42
2019-04-16T14:07:52.635Z,23.45
2019-04-16T14:10:22.296Z,23.48
2019-04-16T14:12:51.916Z,23.50
2019-04-16T14:15:31.679Z,23.48
2019-04-16T14:17:59.077Z,23.49
2019-04-16T14:20:27.144Z,23.48
2019-04-16T14:22:56.644Z,23.52
2019-04-16T14:25:26.260Z,23.57
2019-04-16T14:27:59.107Z,23.65
2019-04-16T14:30:28.688Z,23.72
2019-04-16T14:32:58.192Z,23.77
2019-04-16T14:35:33.589Z,23.79
2019-04-16T14:38:00.527Z,23.80
2019-04-16T14:40:30.442Z,23.78
2019-04-16T14:43:00.117Z,23.74
2019-04-16T14:45:53.635Z,23.79
2019-04-16T14:48:09.786Z,23.79
2019-04-16T14:50:39.667Z,23.69
2019-04-16T14:53:09.340Z,23.76
2019-04-16T14:55:43.724Z,23.74
2019-04-16T14:58:27.937Z,23.71
2019-04-16T15:00:59.261Z,23.66
2019-04-16T15:03:45.454Z,23.65
2019-04-16T15:06:25.522Z,23.62
2019-04-16T15:08:58.010Z,23.56
2019-04-16T15:11:31.608Z,23.52
2019-04-16T15:14:02.718Z,23.50
2019-04-16T15:16:34.471Z,23.52
2019-04-16T15:19:21.864Z,23.53
2019-04-16T15:22:09.342Z,23.55
2019-04-16T15:24:53.547Z,23.56
2019-04-16T15:27:53.115Z,23.58
2019-04-16T15:30:30.350Z,23.60
2019-04-16T15:33:07.082Z,23.59
2019-04-16T15:35:40.664Z,23.59
2019-04-16T15:38:19.209Z,23.61
2019-04-16T15:40:50.378Z,23.65
2019-04-16T15:43:37.727Z,23.70
2019-04-16T15:46:12.883Z,23.74
2019-04-16T15:48:50.412Z,23.74
2019-04-16T15:51:29.034Z,23.72
2019-04-16T15:54:07.840Z,23.66
2019-04-16T15:56:54.089Z,23.61
2019-04-16T15:59:27.609Z,23.51
2019-04-16T16:02:14.848Z,23.43
2019-04-16T16:04:45.964Z,23.36
2019-04-16T16:07:15.495Z,23.30
2019-04-16T16:10:03.020Z,23.24
2019-04-16T16:12:32.586Z,23.21
2019-04-16T16:15:02.160Z,23.17
2019-04-16T16:17:33.269Z,23.12
2019-04-16T16:20:02.904Z,23.02
2019-04-16T16:22:32.375Z,22.94
2019-04-16T16:25:05.460Z,22.83
2019-04-16T16:27:33.146Z,22.73
2019-04-16T16:30:02.871Z,22.61
2019-04-16T16:32:32.520Z,22.48
2019-04-16T16:35:02.158Z,22.32
2019-04-16T16:37:33.862Z,22.15
2019-04-16T16:40:02.846Z,21.97
2019-04-16T16:42:32.358Z,21.78
2019-04-16T16:45:02.965Z,21.60
2019-04-16T16:47:34.615Z,21.40
2019-04-16T16:50:07.545Z,21.21
2019-04-16T16:52:38.612Z,21.02
2019-04-16T16:55:13.304Z,20.86
2019-04-16T16:57:44.721Z,20.69
2019-04-16T17:00:20.717Z,20.51
2019-04-16T17:02:52.599Z,20.37
2019-04-16T17:05:29.598Z,20.23
2019-04-16T17:07:59.097Z,20.10
2019-04-16T17:10:28.603Z,19.99
2019-04-16T17:12:58.074Z,19.86
2019-04-16T17:15:27.739Z,19.76
2019-04-16T17:17:57.219Z,19.65
2019-04-16T17:20:26.783Z,19.55
2019-04-16T17:22:56.317Z,19.46
2019-04-16T17:25:36.128Z,19.42
2019-04-16T17:27:57.162Z,19.35
2019-04-16T17:30:27.156Z,19.29
2019-04-16T17:32:56.657Z,19.24
2019-04-16T17:35:26.289Z,19.19
2019-04-16T17:38:01.594Z,19.16
2019-04-16T17:40:30.306Z,19.10
2019-04-16T17:43:12.952Z,19.05
2019-04-16T17:45:42.863Z,18.99
2019-04-16T17:48:20.961Z,18.93
2019-04-16T17:50:59.003Z,18.87
2019-04-16T17:53:42.116Z,18.79
2019-04-16T17:56:29.390Z,18.73
2019-04-16T17:59:16.759Z,18.66
2019-04-16T18:01:50.443Z,18.57
2019-04-16T18:04:25.670Z,18.49
2019-04-16T18:07:06.705Z,18.42
2019-04-16T18:09:36.039Z,18.34
2019-04-16T18:12:23.040Z,18.26
2019-04-16T18:15:00.062Z,18.18
2019-04-16T18:17:46.878Z,18.10
2019-04-16T18:20:09.349Z,18.03
2019-04-16T18:22:38.760Z,17.94
2019-04-16T18:25:10.166Z,17.86
2019-04-16T18:27:47.201Z,17.76
2019-04-16T18:30:34.521Z,17.65
2019-04-16T18:33:22.119Z,17.54
2019-04-16T18:35:51.524Z,17.39
2019-04-16T18:38:29.523Z,17.24
2019-04-16T18:41:16.774Z,17.12
2019-04-16T18:43:48.023Z,16.98
2019-04-16T18:46:22.146Z,16.83
2019-04-16T18:49:02.704Z,16.69
2019-04-16T18:51:33.533Z,16.55
2019-04-16T18:54:03.424Z,16.39
2019-04-16T18:56:32.923Z,16.27
2019-04-16T18:59:02.569Z,16.14
2019-04-16T19:01:33.775Z,15.98
2019-04-16T19:04:03.591Z,15.86
2019-04-16T19:06:33.342Z,15.74
2019-04-16T19:09:03.124Z,15.62
2019-04-16T19:11:32.849Z,15.51
2019-04-16T19:14:02.440Z,15.39
2019-04-16T19:16:32.024Z,15.28
2019-04-16T19:19:01.883Z,15.18
2019-04-16T19:21:31.493Z,15.09
2019-04-16T19:24:00.973Z,14.99
2019-04-16T19:26:30.726Z,14.89
2019-04-16T19:29:00.277Z,14.79
2019-04-16T19:31:29.794Z,14.70
2019-04-16T19:33:59.378Z,14.61
2019-04-16T19:36:28.882Z,14.52
2019-04-16T19:39:17.910Z,14.43
2019-04-16T19:41:47.434Z,14.35
2019-04-16T19:44:17.010Z,14.27
2019-04-16T19:46:52.420Z,14.19
2019-04-16T19:49:18.121Z,14.11
2019-04-16T19:54:23.323Z,13.97
2019-04-16T19:56:53.170Z,13.88
2019-04-16T19:59:22.899Z,13.82
2019-04-16T20:01:55.985Z,13.76
2019-04-16T20:04:23.833Z,13.70
2019-04-16T20:06:53.988Z,13.64
2019-04-16T20:09:24.704Z,13.58
2019-04-16T20:11:55.554Z,13.52
2019-04-16T20:14:25.457Z,13.47
2019-04-16T20:16:55.289Z,13.40
2019-04-16T20:19:24.965Z,13.36
2019-04-16T20:21:54.442Z,13.31
2019-04-16T20:24:23.932Z,13.26
2019-04-16T20:26:53.465Z,13.20
2019-04-16T20:29:23.104Z,13.14
2019-04-16T20:31:53.258Z,13.08
2019-04-16T20:34:22.855Z,13.03
2019-04-16T20:36:55.764Z,12.98
2019-04-16T20:39:23.586Z,12.94
2019-04-16T20:41:58.443Z,12.89
2019-04-16T20:44:24.400Z,12.84
2019-04-16T20:46:53.910Z,12.78
2019-04-16T20:49:23.418Z,12.75
2019-04-16T20:51:56.623Z,12.70
2019-04-16T20:54:25.033Z,12.65
2019-04-16T20:56:55.009Z,12.60
2019-04-16T20:59:24.656Z,12.56
2019-04-16T21:01:54.185Z,12.50
2019-04-16T21:04:23.706Z,12.47
2019-04-16T21:06:53.265Z,12.41
2019-04-16T21:09:22.917Z,12.38
2019-04-16T21:11:52.856Z,12.33
2019-04-16T21:14:22.746Z,12.28
2019-04-16T21:16:52.377Z,12.23
2019-04-16T21:19:23.802Z,12.18
2019-04-16T21:21:56.480Z,12.14
2019-04-16T21:24:24.544Z,12.09
2019-04-16T21:26:54.016Z,12.05
2019-04-16T21:29:33.296Z,12.00
2019-04-16T21:32:02.541Z,11.97
2019-04-16T21:34:33.668Z,11.93
2019-04-16T21:37:17.099Z,11.88
2019-04-16T21:39:51.186Z,11.85
2019-04-16T21:42:19.524Z,11.82
2019-04-16T21:44:49.059Z,11.80
2019-04-16T21:47:23.208Z,11.76
2019-04-16T21:49:49.844Z,11.74
2019-04-16T21:52:19.439Z,11.71
2019-04-16T21:54:48.966Z,11.69
2019-04-16T21:57:18.498Z,11.67
2019-04-16T21:59:50.288Z,11.65
2019-04-16T22:02:26.800Z,11.65
2019-04-16T22:04:56.544Z,11.64
2019-04-16T22:07:26.177Z,11.63
2019-04-16T22:09:55.947Z,11.64
2019-04-16T22:12:25.586Z,11.63
2019-04-16T22:14:55.631Z,11.63
2019-04-16T22:17:25.515Z,11.62
2019-04-16T22:20:01.549Z,11.61
2019-04-16T22:22:27.770Z,11.59
2019-04-16T22:24:57.929Z,11.57
2019-04-16T22:27:29.060Z,11.55
2019-04-16T22:29:58.518Z,11.53
2019-04-16T22:32:30.959Z,11.50
2019-04-16T22:34:59.202Z,11.48
2019-04-16T22:37:28.747Z,11.44
2019-04-16T22:40:02.780Z,11.41
2019-04-16T22:42:43.888Z,11.36
2019-04-16T22:45:31.075Z,11.31
2019-04-16T22:48:00.551Z,11.24
2019-04-16T22:50:30.069Z,11.19
2019-04-16T22:53:18.959Z,11.14
2019-04-16T22:55:48.420Z,11.11
2019-04-16T22:58:50.328Z,11.08
2019-04-16T23:01:21.679Z,11.06
2019-04-16T23:03:53.374Z,11.04
2019-04-16T23:06:22.424Z,11.02
2019-04-16T23:08:51.894Z,11.02
2019-04-16T23:11:23.656Z,11.03
2019-04-16T23:13:52.781Z,11.01
2019-04-16T23:16:22.377Z,11.01
2019-04-16T23:18:51.902Z,11.02
2019-04-16T23:21:21.493Z,11.03
2019-04-16T23:23:52.276Z,11.04
2019-04-16T23:26:21.908Z,11.03
2019-04-16T23:28:51.568Z,11.04
2019-04-16T23:31:22.751Z,11.06
2019-04-16T23:33:52.479Z,11.09
2019-04-16T23:36:22.050Z,11.13
2019-04-16T23:38:51.616Z,11.16
2019-04-16T23:41:21.112Z,11.21
2019-04-16T23:44:08.838Z,11.27
2019-04-16T23:46:46.979Z,11.32
2019-04-16T23:49:34.312Z,11.38
2019-04-16T23:52:14.592Z,11.42
2019-04-16T23:55:00.479Z,11.48
2019-04-16T23:57:43.336Z,11.52
